Hauptseite
METAR-TAF:

METAR-TAF

Flughäfen :

Winchester Regional Airport

Winchester, Virginia, Vereinigte Staaten

Breite: 39-09N, Länge: 078-09W, Höhe: 222 m

Beobachtung

Neuester Wetterbericht von vor 17 Minuten, um 23:55 UTC
Wind 14 kt aus West/Nordwest
Temperatur 0°C
Luftfeuchtigkeit 51%
Luftdruck 1031 hPa
Sichtweite: 16.1 km
Himmel klar

METAR: KOKV 112355Z AUTO 30014KT 10SM CLR 00/M09 A3044 RMK AO2

Zeit: 19:12 (00:12 UTC)


TAF: fehlend

Wetterbeobachtungen und Prognosen von mehr als 4000 Flughäfen (METAR und TAF Bericht).

Die verfügbaren Stationen werden durch gelbe und rote Markierungen auf der Karte dargestellt.

Führen Sie die Maus auf sie, um den Namen der Station zu sehen.

Darauf klicken, um die Beobachtung von Wetterbeobachtungen und Prognosen zu sehen.

Um die Karte zu ändern : klicken Sie auf den grünen Tasten mit einem schwarzen Kreuz Zum Vergrößern, auf den grünen Button mit einem Gedankenstrich zu verkleinern, oder auf die grünen Pfeile für benachbarte Karten.


METAR-TAF: